Etusivu
METAR-TAF:

METAR-TAF

Lentoasemat :

Red Dog Mine, Alaska, Yhdysvallat

Leveyspiiri: 68-01-56N, Pituuspiiri: 162-53-57W, korkeus merenpinnasta: 295 m

Tämänhetkinen sää

Tämä raportti tehtiin 5 tuntia ja 57 minuuttia sitten, kello 18.00 UTC
Tuuli 13 kn etelästä
Lämpötila 8°C
Kosteus 87%
Ilmanpaine 1015 hPa
Näkyvyys: 16.1 km
Pilvistä 800 ft:n korkeudessa

METAR: PADG 191800Z 17013KT 10SM OVC008 08/06 A2997

Aika: 15:57 (23:57 UTC)


TAF: puuttuu

Säähavainnot ja -ennusteet yli 4000 lentoasemalta (METAR- ja TAF-raportit).

Käytössä olevat sääasemat on merkitty karttaan keltaisilla ja punaisilla pisteillä.

Aseta hiiri pisteen päälle nähdäksesi sääaseman nimen.

Klikkaa sitten nähdäksesi säähavainnot ja -ennusteet.

Kartan vaihtaminen: klikkaa mustalla rastilla varustettuja vihreitä pisteitä, niin voit zoomata sisään; viivalla varustettua vihreää pistettä, niin voit zoomata ulos tai vihreitä nuolia, niin pääset viereisille kartoille.


METAR-TAF: